createdAt,value
2023-01-07T00:01:08.018Z,15.77
2023-01-07T00:03:34.745Z,16.02
2023-01-07T00:06:07.662Z,15.07
2023-01-07T00:08:36.969Z,15.10
2023-01-07T00:11:05.477Z,15.73
2023-01-07T00:13:32.321Z,16.10
2023-01-07T00:16:04.215Z,16.20
2023-01-07T00:18:31.163Z,16.77
2023-01-07T00:21:01.685Z,17.95
2023-01-07T00:23:29.979Z,17.23
2023-01-07T00:26:02.036Z,19.30
2023-01-07T00:28:28.683Z,16.90
2023-01-07T00:31:02.679Z,17.17
2023-01-07T00:33:29.704Z,17.60
2023-01-07T00:36:01.051Z,17.63
2023-01-07T00:38:27.953Z,18.20
2023-01-07T00:40:54.537Z,17.90
2023-01-07T00:43:21.286Z,17.35
2023-01-07T00:45:47.945Z,17.77
2023-01-07T00:48:14.955Z,17.27
2023-01-07T00:50:42.217Z,17.05
2023-01-07T00:53:10.050Z,16.75
2023-01-07T00:55:36.628Z,16.90
2023-01-07T00:58:03.256Z,17.15
2023-01-07T01:00:30.411Z,17.02
2023-01-07T01:02:57.171Z,17.30
2023-01-07T01:05:23.771Z,16.75
2023-01-07T01:07:50.346Z,17.38
2023-01-07T01:10:18.378Z,17.95
2023-01-07T01:12:45.495Z,18.52
2023-01-07T01:15:14.793Z,17.15
2023-01-07T01:17:41.918Z,17.38
2023-01-07T01:20:12.504Z,16.85
2023-01-07T01:22:39.305Z,16.15
2023-01-07T01:25:06.419Z,16.88
2023-01-07T01:27:33.011Z,17.52
2023-01-07T01:29:59.651Z,17.48
2023-01-07T01:32:26.466Z,18.27
2023-01-07T01:34:53.037Z,17.10
2023-01-07T01:37:19.801Z,18.63
2023-01-07T01:39:46.411Z,18.05
2023-01-07T01:42:15.413Z,18.20
2023-01-07T01:44:44.997Z,18.95
2023-01-07T01:47:36.013Z,18.35
2023-01-07T01:50:27.940Z,17.73
2023-01-07T01:53:20.562Z,18.88
2023-01-07T01:55:56.966Z,17.40
2023-01-07T01:58:36.194Z,18.73
2023-01-07T02:01:03.012Z,16.50
2023-01-07T02:03:30.680Z,16.88
2023-01-07T02:05:57.374Z,17.02
2023-01-07T02:08:24.011Z,16.58
2023-01-07T02:11:12.330Z,16.05
2023-01-07T02:16:24.339Z,14.18
2023-01-07T02:19:46.685Z,14.60
2023-01-07T02:22:25.265Z,12.63
2023-01-07T02:25:16.984Z,12.63
2023-01-07T02:27:52.552Z,11.55
2023-01-07T02:30:43.988Z,10.10
2023-01-07T02:33:38.406Z,10.05
2023-01-07T02:36:19.704Z,10.45
2023-01-07T02:39:04.209Z,10.35
2023-01-07T02:41:53.549Z,9.35
2023-01-07T02:44:35.278Z,10.75
2023-01-07T02:47:12.222Z,10.95
2023-01-07T02:49:38.840Z,11.15
2023-01-07T02:52:22.803Z,10.80
2023-01-07T02:54:54.457Z,10.68
2023-01-07T02:57:32.912Z,9.65
2023-01-07T03:02:48.312Z,10.15
2023-01-07T03:05:36.693Z,9.52
2023-01-07T03:10:43.005Z,9.02
2023-01-07T03:13:17.910Z,9.55
2023-01-07T03:15:44.465Z,9.68
2023-01-07T03:18:15.925Z,10.38
2023-01-07T03:20:44.514Z,10.00
2023-01-07T03:25:44.556Z,8.48
2023-01-07T03:28:12.460Z,9.15
2023-01-07T03:30:39.208Z,9.98
2023-01-07T03:33:18.200Z,8.73
2023-01-07T03:35:47.970Z,8.75
2023-01-07T03:38:15.524Z,8.27
2023-01-07T03:40:42.138Z,7.85
2023-01-07T03:43:16.018Z,8.20
2023-01-07T03:45:42.838Z,7.70
2023-01-07T03:48:09.447Z,8.77
2023-01-07T03:50:36.079Z,7.90
2023-01-07T03:53:02.849Z,8.50
2023-01-07T03:55:29.545Z,7.70
2023-01-07T03:57:57.025Z,7.07
2023-01-07T04:00:23.849Z,7.60
2023-01-07T04:02:50.618Z,7.80
2023-01-07T04:05:17.364Z,6.78
2023-01-07T04:07:43.970Z,6.32
2023-01-07T04:10:10.674Z,6.63
2023-01-07T04:12:37.267Z,5.90
2023-01-07T04:15:04.788Z,5.60
2023-01-07T04:17:31.481Z,5.32
2023-01-07T04:19:58.047Z,4.75
2023-01-07T04:22:24.621Z,5.18
2023-01-07T04:24:51.221Z,4.30
2023-01-07T04:27:17.953Z,4.75
2023-01-07T04:29:44.539Z,4.60
2023-01-07T04:32:11.093Z,4.00
2023-01-07T04:34:37.687Z,4.22
2023-01-07T04:37:04.264Z,4.43
2023-01-07T04:39:30.927Z,4.32
2023-01-07T04:41:57.481Z,3.78
2023-01-07T04:44:24.053Z,3.72
2023-01-07T04:46:50.649Z,3.90
2023-01-07T04:49:17.452Z,3.55
2023-01-07T04:51:44.037Z,3.83
2023-01-07T04:54:10.763Z,3.53
2023-01-07T04:56:37.317Z,3.58
2023-01-07T04:59:03.907Z,3.50
2023-01-07T05:01:32.694Z,3.25
2023-01-07T05:03:59.492Z,3.03
2023-01-07T05:06:26.117Z,2.92
2023-01-07T05:08:52.761Z,2.63
2023-01-07T05:11:21.822Z,2.63
2023-01-07T05:13:52.332Z,2.92
2023-01-07T05:16:19.003Z,2.20
2023-01-07T05:18:45.678Z,2.53
2023-01-07T05:21:12.684Z,2.38
2023-01-07T05:23:39.276Z,3.05
2023-01-07T05:26:06.475Z,2.47
2023-01-07T05:28:33.104Z,2.63
2023-01-07T05:31:00.149Z,2.15
2023-01-07T05:33:26.729Z,2.17
2023-01-07T05:35:53.358Z,2.60
2023-01-07T05:38:19.954Z,2.47
2023-01-07T05:40:50.152Z,2.50
2023-01-07T05:43:17.332Z,2.30
2023-01-07T05:45:46.594Z,2.00
2023-01-07T05:48:14.027Z,1.88
2023-01-07T05:50:40.824Z,2.40
2023-01-07T05:53:07.745Z,1.75
2023-01-07T05:55:37.023Z,1.90
2023-01-07T05:58:03.751Z,2.15
2023-01-07T06:00:30.690Z,2.05
2023-01-07T06:02:57.292Z,1.63
2023-01-07T06:05:23.942Z,1.70
2023-01-07T06:07:50.533Z,1.83
2023-01-07T06:10:17.102Z,2.10
2023-01-07T06:12:43.705Z,2.00
2023-01-07T06:15:10.814Z,2.00
2023-01-07T06:17:37.469Z,2.20
2023-01-07T06:20:05.123Z,2.00
2023-01-07T06:22:31.669Z,2.17
2023-01-07T06:24:58.264Z,1.90
2023-01-07T06:27:24.837Z,1.90
2023-01-07T06:29:51.414Z,1.90
2023-01-07T06:32:18.169Z,1.75
2023-01-07T06:34:44.713Z,2.00
2023-01-07T06:37:11.349Z,1.85
2023-01-07T06:39:37.894Z,2.13
2023-01-07T06:42:04.569Z,1.90
2023-01-07T06:44:31.142Z,2.33
2023-01-07T06:46:57.717Z,2.20
2023-01-07T06:49:24.265Z,1.65
2023-01-07T06:51:50.827Z,2.20
2023-01-07T06:54:17.442Z,1.88
2023-01-07T06:56:44.007Z,2.08
2023-01-07T06:59:11.187Z,2.20
2023-01-07T07:01:37.828Z,2.17
2023-01-07T07:04:04.612Z,2.22
2023-01-07T07:06:31.269Z,2.42
2023-01-07T07:08:57.878Z,2.30
2023-01-07T07:11:24.474Z,2.88
2023-01-07T07:13:51.058Z,2.55
2023-01-07T07:16:17.790Z,2.58
2023-01-07T07:18:44.426Z,2.78
2023-01-07T07:21:10.989Z,2.78
2023-01-07T07:23:37.541Z,2.20
2023-01-07T07:26:04.331Z,2.13
2023-01-07T07:28:30.909Z,2.50
2023-01-07T07:30:57.532Z,2.30
2023-01-07T07:33:24.139Z,2.30
2023-01-07T07:35:50.799Z,2.38
2023-01-07T07:38:18.523Z,2.20
2023-01-07T07:40:46.211Z,2.17
2023-01-07T07:43:13.523Z,2.43
2023-01-07T07:45:41.266Z,2.38
2023-01-07T07:48:08.967Z,2.33
2023-01-07T07:50:36.152Z,2.50
2023-01-07T07:53:02.875Z,2.33
2023-01-07T07:55:29.476Z,2.38
2023-01-07T07:57:57.182Z,2.28
2023-01-07T08:00:24.414Z,2.45
2023-01-07T08:02:51.217Z,2.30
2023-01-07T08:05:18.411Z,2.60
2023-01-07T08:07:45.103Z,2.40
2023-01-07T08:10:11.660Z,2.47
2023-01-07T08:12:39.116Z,2.20
2023-01-07T08:15:07.265Z,2.00
2023-01-07T08:17:34.471Z,2.03
2023-01-07T08:20:01.131Z,2.22
2023-01-07T08:22:27.743Z,2.38
2023-01-07T08:24:54.386Z,1.90
2023-01-07T08:27:21.224Z,2.30
2023-01-07T08:29:47.895Z,2.25
2023-01-07T08:32:14.605Z,2.35
2023-01-07T08:34:41.445Z,2.45
2023-01-07T08:37:08.020Z,1.67
2023-01-07T08:39:34.588Z,1.80
2023-01-07T08:42:01.160Z,1.95
2023-01-07T08:44:27.742Z,1.90
2023-01-07T08:46:54.573Z,1.70
2023-01-07T08:49:21.783Z,2.00
2023-01-07T08:51:48.379Z,2.00
2023-01-07T08:54:15.242Z,1.88
2023-01-07T08:56:42.321Z,1.92
2023-01-07T08:59:09.932Z,1.73
2023-01-07T09:01:37.165Z,1.83
2023-01-07T09:04:03.922Z,1.70
2023-01-07T09:06:30.526Z,1.73
2023-01-07T09:08:57.088Z,2.20
2023-01-07T09:11:23.821Z,2.00
2023-01-07T09:13:50.442Z,1.70
2023-01-07T09:16:17.068Z,1.60
2023-01-07T09:18:43.771Z,1.52
2023-01-07T09:21:10.308Z,1.52
2023-01-07T09:23:36.945Z,1.65
2023-01-07T09:26:03.562Z,1.60
2023-01-07T09:28:30.225Z,1.30
2023-01-07T09:30:57.428Z,2.05
2023-01-07T09:33:25.331Z,1.48
2023-01-07T09:35:52.175Z,1.50
2023-01-07T09:38:18.715Z,1.33
2023-01-07T09:40:45.675Z,1.40
2023-01-07T09:43:18.174Z,1.60
2023-01-07T09:45:51.089Z,1.38
2023-01-07T09:48:27.519Z,1.65
2023-01-07T09:51:16.622Z,1.20
2023-01-07T09:53:54.745Z,1.40
2023-01-07T09:56:28.029Z,1.08
2023-01-07T09:58:55.477Z,1.02
2023-01-07T10:01:22.400Z,0.90
2023-01-07T10:03:54.860Z,1.10
2023-01-07T10:06:43.095Z,1.20
2023-01-07T10:09:51.461Z,1.05
2023-01-07T10:12:55.760Z,1.13
2023-01-07T10:15:37.735Z,1.00
2023-01-07T10:18:12.406Z,0.80
2023-01-07T10:20:55.877Z,0.90
2023-01-07T10:23:26.104Z,1.10
2023-01-07T10:25:57.408Z,0.90
2023-01-07T10:28:51.141Z,0.90
2023-01-07T10:31:23.084Z,0.70
2023-01-07T10:33:51.416Z,0.90
2023-01-07T10:36:38.447Z,1.00
2023-01-07T10:39:11.123Z,0.95
2023-01-07T10:41:55.917Z,0.70
2023-01-07T10:44:44.361Z,0.80
2023-01-07T10:50:21.431Z,0.88
2023-01-07T10:53:07.641Z,0.75
2023-01-07T10:55:46.241Z,0.60
2023-01-07T10:58:12.989Z,0.73
2023-01-07T11:00:40.297Z,0.63
2023-01-07T11:03:16.724Z,0.65
2023-01-07T11:05:43.474Z,0.60
2023-01-07T11:08:25.834Z,0.73
2023-01-07T11:10:52.431Z,0.70
2023-01-07T11:13:30.848Z,0.60
2023-01-07T11:16:08.227Z,0.65
2023-01-07T11:18:45.571Z,0.80
2023-01-07T11:21:43.359Z,0.77
2023-01-07T11:23:58.723Z,0.73
2023-01-07T11:26:34.452Z,0.70
2023-01-07T11:29:27.323Z,0.80
2023-01-07T11:31:59.054Z,0.80
2023-01-07T11:34:28.492Z,0.90
2023-01-07T11:36:55.196Z,1.17
2023-01-07T11:39:27.389Z,0.70
2023-01-07T11:42:36.414Z,0.90
2023-01-07T11:45:21.259Z,0.80
2023-01-07T11:48:09.053Z,0.90
2023-01-07T11:51:05.950Z,0.93
2023-01-07T11:53:50.648Z,0.70
2023-01-07T11:56:20.200Z,0.60
2023-01-07T11:58:49.115Z,0.90
2023-01-07T12:01:18.763Z,0.90
2023-01-07T12:04:14.612Z,0.93
2023-01-07T12:06:44.549Z,0.90
2023-01-07T12:09:38.053Z,0.65
2023-01-07T12:12:35.106Z,0.68
2023-01-07T12:15:05.715Z,0.82
2023-01-07T12:17:34.122Z,0.70
2023-01-07T12:20:00.621Z,0.98
2023-01-07T12:22:58.432Z,0.70
2023-01-07T12:25:56.021Z,0.80
2023-01-07T12:28:47.337Z,0.80
2023-01-07T12:31:13.896Z,1.00
2023-01-07T12:34:04.572Z,0.90
2023-01-07T12:36:47.683Z,1.10
2023-01-07T12:39:30.850Z,1.20
2023-01-07T12:42:03.901Z,1.00
2023-01-07T12:44:31.268Z,0.90
2023-01-07T12:47:37.349Z,0.90
2023-01-07T12:50:05.268Z,1.00
2023-01-07T12:52:41.111Z,0.88
2023-01-07T12:55:17.124Z,0.80
2023-01-07T12:57:46.252Z,1.10
2023-01-07T13:00:19.963Z,1.10
2023-01-07T13:02:56.971Z,1.20
2023-01-07T13:05:32.630Z,1.00
2023-01-07T13:08:15.417Z,0.90
2023-01-07T13:10:43.598Z,1.35
2023-01-07T13:13:17.376Z,1.08
2023-01-07T13:15:44.042Z,0.80
2023-01-07T13:18:10.597Z,1.10
2023-01-07T13:21:05.547Z,1.05
2023-01-07T13:23:40.357Z,1.20
2023-01-07T13:26:21.440Z,1.00
2023-01-07T13:29:23.532Z,1.00
2023-01-07T13:32:05.289Z,1.17
2023-01-07T13:34:50.611Z,1.17
2023-01-07T13:37:49.472Z,1.02
2023-01-07T13:40:22.065Z,1.40
2023-01-07T13:43:09.536Z,1.20
2023-01-07T13:45:37.372Z,1.13
2023-01-07T13:48:06.147Z,1.15
2023-01-07T13:50:42.776Z,1.13
2023-01-07T13:53:32.757Z,1.00
2023-01-07T13:56:17.774Z,1.00
2023-01-07T13:58:55.603Z,1.23
2023-01-07T14:01:35.259Z,1.00
2023-01-07T14:04:06.707Z,1.23
2023-01-07T14:06:47.764Z,1.30
2023-01-07T14:09:21.094Z,1.52
2023-01-07T14:12:09.608Z,1.45
2023-01-07T14:15:08.429Z,1.40
2023-01-07T14:17:52.550Z,1.70
2023-01-07T14:20:27.065Z,1.35
2023-01-07T14:23:06.888Z,1.45
2023-01-07T14:26:01.663Z,1.33
2023-01-07T14:29:16.611Z,1.60
2023-01-07T14:31:43.220Z,1.30
2023-01-07T14:34:25.731Z,1.38
2023-01-07T14:37:01.704Z,1.20
2023-01-07T14:39:43.525Z,1.20
2023-01-07T14:42:19.152Z,1.13
2023-01-07T14:44:49.675Z,1.50
2023-01-07T14:47:41.145Z,1.30
2023-01-07T14:50:35.672Z,1.25
2023-01-07T14:53:30.207Z,1.17
2023-01-07T14:56:05.818Z,1.40
2023-01-07T14:59:03.274Z,1.10
2023-01-07T15:01:51.419Z,1.25
2023-01-07T15:04:53.133Z,1.10
2023-01-07T15:07:25.727Z,1.20
2023-01-07T15:10:20.965Z,1.33
2023-01-07T15:13:09.202Z,1.40
2023-01-07T15:15:56.583Z,1.52
2023-01-07T15:18:23.212Z,1.63
2023-01-07T15:21:19.123Z,1.02
2023-01-07T15:23:54.543Z,0.93
2023-01-07T15:26:36.334Z,1.15
2023-01-07T15:29:30.428Z,0.90
2023-01-07T15:32:23.279Z,1.17
2023-01-07T15:34:49.839Z,1.20
2023-01-07T15:37:17.790Z,1.10
2023-01-07T15:39:48.601Z,0.82
2023-01-07T15:42:26.339Z,0.80
2023-01-07T15:44:54.850Z,1.00
2023-01-07T15:47:41.257Z,0.82
2023-01-07T15:50:34.940Z,0.88
2023-01-07T15:53:04.044Z,0.98
2023-01-07T15:55:37.680Z,0.80
2023-01-07T15:58:06.593Z,1.10
2023-01-07T16:00:34.824Z,0.88
2023-01-07T16:03:02.789Z,1.02
2023-01-07T16:05:29.554Z,1.02
2023-01-07T16:07:58.330Z,1.30
2023-01-07T16:10:29.820Z,0.95
2023-01-07T16:12:59.015Z,1.55
2023-01-07T16:15:33.999Z,0.90
2023-01-07T16:18:16.007Z,0.88
2023-01-07T16:21:01.866Z,1.00
2023-01-07T16:23:33.660Z,0.85
2023-01-07T16:26:05.566Z,0.98
2023-01-07T16:28:39.855Z,0.90
2023-01-07T16:31:09.561Z,1.10
2023-01-07T16:33:37.853Z,1.10
2023-01-07T16:36:13.146Z,1.10
2023-01-07T16:38:39.797Z,1.10
2023-01-07T16:41:06.629Z,1.25
2023-01-07T16:43:43.457Z,1.20
2023-01-07T16:46:28.807Z,1.20
2023-01-07T16:49:18.567Z,1.20
2023-01-07T16:51:49.978Z,1.10
2023-01-07T16:54:25.701Z,1.20
2023-01-07T16:57:00.526Z,1.25
2023-01-07T16:59:56.843Z,1.50
2023-01-07T17:02:36.969Z,1.20
2023-01-07T17:05:19.196Z,1.52
2023-01-07T17:07:55.627Z,1.50
2023-01-07T17:10:27.481Z,1.75
2023-01-07T17:12:58.734Z,1.67
2023-01-07T17:15:33.773Z,1.88
2023-01-07T17:18:12.544Z,2.00
2023-01-07T17:20:51.909Z,2.20
2023-01-07T17:23:27.676Z,2.42
2023-01-07T17:25:59.188Z,2.05
2023-01-07T17:28:26.820Z,2.20
2023-01-07T17:30:53.666Z,2.77
2023-01-07T17:33:22.913Z,2.50
2023-01-07T17:35:51.724Z,2.15
2023-01-07T17:38:19.063Z,2.60
2023-01-07T17:40:45.769Z,2.78
2023-01-07T17:43:35.260Z,2.58
2023-01-07T17:46:12.429Z,2.63
2023-01-07T17:48:39.479Z,2.60
2023-01-07T17:51:07.224Z,2.75
2023-01-07T17:53:37.938Z,2.97
2023-01-07T17:56:04.758Z,3.33
2023-01-07T17:58:33.739Z,2.75
2023-01-07T18:01:02.294Z,2.78
2023-01-07T18:03:29.171Z,2.70
2023-01-07T18:05:55.770Z,3.22
2023-01-07T18:08:22.341Z,2.95
2023-01-07T18:11:07.999Z,2.90
2023-01-07T18:13:34.550Z,2.85
2023-01-07T18:16:01.283Z,3.03
2023-01-07T18:18:28.858Z,3.15
2023-01-07T18:20:56.389Z,3.03
2023-01-07T18:23:23.872Z,3.20
2023-01-07T18:25:51.323Z,2.90
2023-01-07T18:28:18.002Z,3.38
2023-01-07T18:30:44.687Z,3.50
2023-01-07T18:33:11.851Z,3.40
2023-01-07T18:35:40.657Z,3.15
2023-01-07T18:38:12.931Z,2.75
2023-01-07T18:40:40.153Z,2.90
2023-01-07T18:43:07.067Z,3.08
2023-01-07T18:45:33.736Z,3.30
2023-01-07T18:48:00.319Z,3.10
2023-01-07T18:50:26.928Z,2.42
2023-01-07T18:52:53.473Z,3.22
2023-01-07T18:55:21.059Z,3.20
2023-01-07T18:57:47.703Z,3.10
2023-01-07T19:00:14.801Z,2.88
2023-01-07T19:02:41.395Z,3.00
2023-01-07T19:05:08.317Z,2.50
2023-01-07T19:07:35.280Z,2.50
2023-01-07T19:10:03.047Z,3.03
2023-01-07T19:12:29.591Z,2.63
2023-01-07T19:14:56.203Z,2.70
2023-01-07T19:17:22.763Z,2.53
2023-01-07T19:19:49.317Z,2.78
2023-01-07T19:22:16.593Z,3.30
2023-01-07T19:24:43.491Z,2.80
2023-01-07T19:27:10.674Z,2.78
2023-01-07T19:29:37.461Z,2.80
2023-01-07T19:32:04.314Z,3.38
2023-01-07T19:34:31.016Z,2.83
2023-01-07T19:36:57.683Z,2.95
2023-01-07T19:39:24.626Z,2.78
2023-01-07T19:41:51.195Z,2.92
2023-01-07T19:44:18.056Z,3.22
2023-01-07T19:46:44.730Z,3.13
2023-01-07T19:49:12.943Z,3.10
2023-01-07T19:51:41.204Z,2.90
2023-01-07T19:54:09.724Z,3.58
2023-01-07T19:59:03.485Z,3.03
2023-01-07T20:01:30.227Z,3.75
2023-01-07T20:03:58.272Z,3.00
2023-01-07T20:06:27.496Z,2.95
2023-01-07T20:08:58.187Z,2.95
2023-01-07T20:11:25.550Z,3.47
2023-01-07T20:13:52.229Z,2.88
2023-01-07T20:16:23.373Z,2.83
2023-01-07T20:18:54.851Z,3.00
2023-01-07T20:21:26.101Z,2.92
2023-01-07T20:23:52.958Z,3.17
2023-01-07T20:26:31.102Z,3.17
2023-01-07T20:28:58.852Z,3.33
2023-01-07T20:31:27.050Z,2.65
2023-01-07T20:33:55.876Z,3.30
2023-01-07T20:36:25.861Z,3.00
2023-01-07T20:38:52.551Z,2.95
2023-01-07T20:41:24.758Z,3.20
2023-01-07T20:43:56.949Z,2.70
2023-01-07T20:46:24.430Z,2.50
2023-01-07T20:48:51.043Z,2.88
2023-01-07T20:51:17.741Z,3.30
2023-01-07T20:53:46.825Z,2.70
2023-01-07T20:56:14.301Z,2.55
2023-01-07T20:58:40.915Z,2.83
2023-01-07T21:01:17.664Z,2.90
2023-01-07T21:03:44.472Z,2.60
2023-01-07T21:06:12.451Z,2.45
2023-01-07T21:08:39.184Z,2.58
2023-01-07T21:11:12.038Z,3.08
2023-01-07T21:13:39.127Z,3.35
2023-01-07T21:16:06.220Z,3.20
2023-01-07T21:18:33.885Z,3.28
2023-01-07T21:21:01.714Z,2.67
2023-01-07T21:23:28.397Z,2.83
2023-01-07T21:25:54.965Z,2.83
2023-01-07T21:28:21.514Z,2.50
2023-01-07T21:30:48.102Z,2.95
2023-01-07T21:33:15.577Z,2.88
2023-01-07T21:35:42.236Z,2.75
2023-01-07T21:40:45.432Z,2.60
2023-01-07T21:43:12.046Z,2.75
2023-01-07T21:45:38.606Z,2.38
2023-01-07T21:48:05.407Z,2.55
2023-01-07T21:50:31.964Z,2.80
2023-01-07T21:52:58.539Z,2.75
2023-01-07T21:55:25.137Z,2.72
2023-01-07T21:57:51.745Z,2.83
2023-01-07T22:00:18.331Z,2.97
2023-01-07T22:02:44.993Z,2.60
2023-01-07T22:05:12.085Z,2.40
2023-01-07T22:07:39.031Z,2.80
2023-01-07T22:10:06.138Z,2.88
2023-01-07T22:12:33.006Z,2.53
2023-01-07T22:14:59.622Z,2.92
2023-01-07T22:17:26.760Z,2.67
2023-01-07T22:19:53.331Z,2.80
2023-01-07T22:22:21.022Z,2.50
2023-01-07T22:24:47.645Z,2.50
2023-01-07T22:27:14.198Z,2.40
2023-01-07T22:29:41.725Z,3.33
2023-01-07T22:32:08.347Z,2.83
2023-01-07T22:34:34.886Z,3.20
2023-01-07T22:37:10.956Z,3.28
2023-01-07T22:39:51.876Z,3.10
2023-01-07T22:42:21.477Z,2.78
2023-01-07T22:44:51.880Z,2.78
2023-01-07T22:47:22.337Z,3.58
2023-01-07T22:49:49.359Z,3.28
2023-01-07T22:52:15.962Z,3.22
2023-01-07T22:54:42.732Z,2.88
2023-01-07T22:57:11.060Z,2.83
2023-01-07T22:59:38.175Z,2.80
2023-01-07T23:02:04.855Z,2.72
2023-01-07T23:04:31.574Z,3.08
2023-01-07T23:06:58.370Z,3.10
2023-01-07T23:09:24.974Z,2.67
2023-01-07T23:11:51.950Z,2.40
2023-01-07T23:14:21.064Z,2.97
2023-01-07T23:16:48.344Z,2.53
2023-01-07T23:19:15.654Z,2.90
2023-01-07T23:21:43.488Z,2.65
2023-01-07T23:24:11.019Z,2.70
2023-01-07T23:26:37.796Z,2.70
2023-01-07T23:29:04.929Z,2.58
2023-01-07T23:31:33.584Z,2.30
2023-01-07T23:34:00.900Z,2.42
2023-01-07T23:36:27.871Z,2.30
2023-01-07T23:38:54.623Z,2.53
2023-01-07T23:41:21.216Z,2.83
2023-01-07T23:43:48.381Z,2.40
2023-01-07T23:46:15.060Z,2.70
2023-01-07T23:48:41.829Z,2.50
2023-01-07T23:51:15.530Z,2.60
2023-01-07T23:53:42.591Z,2.50
2023-01-07T23:56:09.690Z,2.47
2023-01-07T23:58:37.314Z,2.30
